Time;durP1;ratioP1;P1;durP2;ratioP2;P2;SDS_P1;SDS_P2;PMS_P1;PMS_P2;Temp;Humidity;BMP_temperature;BMP_pressure;BME280_temperature;BME280_humidity;BME280_pressure;Samples;Min_cycle;Max_cycle;Signal;HPM_P1;HPM_P2
2022/01/13 00:01:04;;;;;;;0.30;0.20;;;;;;;-0.17;54.40;96464.38;5132934;28;20478;-54
2022/01/13 00:03:33;;;;;;;0.20;0.20;;;;;;;-0.02;53.67;96467.84;5132834;27;20431;-54
2022/01/13 00:06:02;;;;;;;0.20;0.20;;;;;;;0.39;52.67;96467.47;5132855;27;20423;-54
2022/01/13 00:08:32;;;;;;;0.47;0.47;;;;;;;-0.14;55.57;96455.41;5132708;28;20488;-54
2022/01/13 00:11:00;;;;;;;0.30;0.20;;;;;;;-0.76;60.23;96480.72;5132940;28;20914;-54
2022/01/13 00:13:35;;;;;;;1.23;1.23;;;;;;;-0.87;63.26;96488.91;5133087;28;20446;-54
2022/01/13 00:16:25;;;;;;;0.30;0.20;;;;;;;-0.83;62.17;96498.78;5132193;28;20869;-54
2022/01/13 00:19:06;;;;;;;2.23;1.77;;;;;;;-0.92;61.76;96497.22;5132641;27;21014;-54
2022/01/13 00:21:38;;;;;;;0.30;0.20;;;;;;;-1.00;60.91;96499.03;5132909;28;20486;-54
2022/01/13 00:24:12;;;;;;;0.30;0.20;;;;;;;-1.32;64.41;96513.75;5132648;28;20418;-54
2022/01/13 00:26:42;;;;;;;0.30;0.20;;;;;;;-1.29;64.41;96477.00;5132521;28;20472;-54
2022/01/13 00:29:10;;;;;;;1.77;1.67;;;;;;;-1.11;64.07;96522.84;5132610;28;20542;-54
2022/01/13 00:31:41;;;;;;;1.73;0.50;;;;;;;-1.18;64.00;96508.84;5132783;28;20458;-54
2022/01/13 00:34:10;;;;;;;0.30;0.20;;;;;;;-1.03;63.51;96522.78;5132460;28;20434;-54
2022/01/13 00:36:41;;;;;;;0.30;0.30;;;;;;;-0.99;63.80;96524.91;5132492;28;20418;-55
2022/01/13 00:39:12;;;;;;;0.20;0.20;;;;;;;-1.04;62.96;96510.78;5132357;28;20478;-54
2022/01/13 00:41:41;;;;;;;0.20;0.20;;;;;;;-1.39;65.82;96514.59;5132753;28;20833;-54
2022/01/13 00:44:10;;;;;;;0.30;0.20;;;;;;;-1.40;66.53;96482.59;5132281;27;20962;-54
2022/01/13 00:46:46;;;;;;;0.30;0.20;;;;;;;-1.35;65.91;96521.91;5132758;27;20458;-54
2022/01/13 00:49:15;;;;;;;0.50;0.50;;;;;;;-0.95;64.12;96518.38;5132309;27;20486;-54
2022/01/13 00:51:44;;;;;;;0.20;0.20;;;;;;;-0.96;60.72;96524.53;5134644;27;20507;-54
2022/01/13 00:54:14;;;;;;;0.20;0.20;;;;;;;-0.75;58.66;96492.75;5135928;27;20462;-54
2022/01/13 00:56:43;;;;;;;0.20;0.20;;;;;;;-1.83;59.68;96410.25;5135780;27;20454;-54
2022/01/13 00:59:13;;;;;;;0.20;0.20;;;;;;;-1.05;59.22;96533.38;5135915;27;20915;-54
2022/01/13 01:01:44;;;;;;;0.20;0.20;;;;;;;-1.09;59.33;96539.91;5135631;27;20504;-54
2022/01/13 01:04:13;;;;;;;0.20;0.20;;;;;;;-0.97;57.33;96493.50;5135828;27;20433;-53
2022/01/13 01:06:43;;;;;;;0.20;0.20;;;;;;;-1.25;58.56;96541.72;5136044;27;20491;-53
2022/01/13 01:09:15;;;;;;;0.30;0.20;;;;;;;-1.04;59.91;96550.63;5135794;27;21004;-53
2022/01/13 01:11:48;;;;;;;0.30;0.27;;;;;;;-0.91;60.04;96537.06;5135657;27;20438;-53
2022/01/13 01:14:18;;;;;;;2.57;0.70;;;;;;;-0.52;59.08;96556.09;5135630;27;20918;-54
2022/01/13 01:16:46;;;;;;;0.20;0.20;;;;;;;-0.66;56.87;96551.63;5135906;27;20464;-53
2022/01/13 01:19:25;;;;;;;0.20;0.20;;;;;;;-1.20;57.05;96558.44;5135571;27;20522;-53
2022/01/13 01:27:36;;;;;;;0.20;0.20;;;;;;;-1.57;56.81;96561.56;5135264;27;20443;-53
2022/01/13 01:30:11;;;;;;;0.20;0.20;;;;;;;-1.67;58.42;96568.72;5135387;27;20469;-53
2022/01/13 01:32:40;;;;;;;0.30;0.20;;;;;;;-1.46;57.62;96550.03;5135303;27;20461;-53
2022/01/13 01:35:14;;;;;;;0.40;0.40;;;;;;;-1.23;57.46;96557.94;5135606;27;20434;-53
2022/01/13 01:37:45;;;;;;;0.20;0.20;;;;;;;-1.41;58.47;96558.97;5135167;27;20426;-53
2022/01/13 01:40:15;;;;;;;0.20;0.20;;;;;;;-1.41;60.57;96545.97;5134958;27;20551;-53
2022/01/13 01:42:46;;;;;;;0.20;0.20;;;;;;;-1.94;62.96;96498.91;5135168;27;20543;-53
2022/01/13 01:45:17;;;;;;;0.20;0.20;;;;;;;-1.03;63.97;96548.78;5135440;27;20509;-53
2022/01/13 01:47:49;;;;;;;0.30;0.27;;;;;;;-1.46;64.12;96566.44;5134983;27;20423;-53
2022/01/13 01:50:21;;;;;;;0.73;0.73;;;;;;;-1.25;67.96;96552.13;5134632;27;20487;-53
2022/01/13 01:52:53;;;;;;;0.20;0.20;;;;;;;-0.83;65.69;96526.59;5134736;27;20418;-53
2022/01/13 01:55:22;;;;;;;0.30;0.30;;;;;;;-0.58;59.93;96546.34;5135151;27;20471;-53
2022/01/13 01:57:52;;;;;;;0.20;0.20;;;;;;;0.02;60.33;96553.50;5134285;27;20437;-53
2022/01/13 02:00:24;;;;;;;0.20;0.20;;;;;;;0.38;56.53;96555.31;5134641;27;20474;-53
2022/01/13 02:02:55;;;;;;;0.20;0.20;;;;;;;0.34;63.24;96542.81;5133200;27;20977;-54
2022/01/13 02:05:24;;;;;;;0.20;0.20;;;;;;;-0.46;57.04;96554.59;5134930;27;20488;-54
2022/01/13 02:07:52;;;;;;;0.20;0.20;;;;;;;-0.13;59.21;96546.41;5134555;27;20426;-53
2022/01/13 02:10:21;;;;;;;0.20;0.20;;;;;;;-0.84;57.45;96499.78;5134499;27;20426;-53
2022/01/13 02:12:53;;;;;;;0.27;0.23;;;;;;;-0.41;64.21;96562.72;5134774;27;20462;-53
2022/01/13 02:15:32;;;;;;;2.23;2.07;;;;;;;-1.17;59.26;96562.50;5134496;27;20411;-53
2022/01/13 02:18:04;;;;;;;0.20;0.20;;;;;;;-0.48;66.87;96565.16;5134429;27;20427;-54
2022/01/13 02:20:46;;;;;;;0.20;0.20;;;;;;;-0.31;71.67;96565.91;5134434;27;20538;-53
2022/01/13 02:23:14;;;;;;;0.20;0.20;;;;;;;0.07;65.37;96561.59;5134200;27;20483;-54
2022/01/13 02:25:42;;;;;;;0.23;0.20;;;;;;;-0.33;59.48;96571.28;5134251;27;20419;-54
2022/01/13 02:28:11;;;;;;;0.20;0.20;;;;;;;-0.43;63.82;96567.28;5134162;27;20476;-54
2022/01/13 02:30:39;;;;;;;0.20;0.20;;;;;;;-0.52;62.38;96565.69;5134363;27;20465;-54
2022/01/13 02:33:08;;;;;;;2.10;2.10;;;;;;;-0.22;59.54;96572.69;5134155;27;20838;-54
2022/01/13 02:35:36;;;;;;;0.20;0.20;;;;;;;-0.11;58.68;96510.59;5133972;27;20930;-53
2022/01/13 02:38:11;;;;;;;0.20;0.20;;;;;;;0.37;65.36;96574.59;5133946;27;20427;-53
2022/01/13 02:40:40;;;;;;;0.20;0.20;;;;;;;0.14;57.34;96572.97;5134059;27;20741;-53
2022/01/13 02:43:09;;;;;;;0.20;0.20;;;;;;;-0.02;57.32;96571.25;5133865;27;20930;-54
2022/01/13 02:45:51;;;;;;;0.20;0.20;;;;;;;-0.09;58.51;96578.97;5133711;27;20431;-53
2022/01/13 02:48:30;;;;;;;0.20;0.20;;;;;;;0.20;61.23;96577.50;5133815;27;20426;-53
2022/01/13 02:50:59;;;;;;;0.30;0.30;;;;;;;-0.79;59.03;96582.56;5133677;27;20431;-53
2022/01/13 02:53:30;;;;;;;1.80;1.40;;;;;;;-0.72;65.09;96592.13;5133668;27;20819;-53
2022/01/13 02:56:02;;;;;;;0.30;0.20;;;;;;;-0.02;64.88;96579.91;5133623;27;20431;-53
2022/01/13 02:58:31;;;;;;;0.20;0.20;;;;;;;0.25;69.09;96578.59;5133697;27;20465;-53
2022/01/13 03:01:00;;;;;;;0.20;0.20;;;;;;;0.11;60.78;96583.72;5133188;27;20535;-54
2022/01/13 03:03:31;;;;;;;0.40;0.30;;;;;;;0.00;59.68;96566.72;5133641;27;20462;-53
2022/01/13 03:06:06;;;;;;;0.23;0.20;;;;;;;-0.11;60.44;96580.13;5133578;27;20489;-53
2022/01/13 03:08:36;;;;;;;0.20;0.20;;;;;;;0.20;59.95;96577.50;5133369;27;20418;-54
2022/01/13 03:11:05;;;;;;;0.30;0.20;;;;;;;0.44;57.53;96577.28;5133640;27;20442;-54
2022/01/13 03:13:33;;;;;;;0.20;0.20;;;;;;;-0.82;55.90;96557.69;5133021;27;20464;-54
2022/01/13 03:16:07;;;;;;;0.47;0.47;;;;;;;-1.12;60.26;96505.59;5133531;27;20473;-53
2022/01/13 03:18:35;;;;;;;0.30;0.30;;;;;;;-0.84;62.73;96488.56;5133320;27;20415;-53
2022/01/13 03:21:06;;;;;;;1.60;1.60;;;;;;;-0.67;60.27;96518.72;5133112;27;20466;-53
2022/01/13 03:23:37;;;;;;;0.20;0.20;;;;;;;-0.38;60.60;96563.16;5133143;27;20439;-53
2022/01/13 03:26:05;;;;;;;0.20;0.20;;;;;;;-0.25;61.56;96560.00;5133461;27;20474;-54
2022/01/13 03:28:50;;;;;;;0.20;0.20;;;;;;;-1.16;60.79;96375.03;5133425;27;20426;-53
2022/01/13 03:31:20;;;;;;;0.20;0.20;;;;;;;0.14;62.87;96584.19;5133015;27;20438;-53
2022/01/13 03:33:49;;;;;;;0.20;0.20;;;;;;;0.05;63.45;96558.38;5132988;27;20426;-53
2022/01/13 03:36:18;;;;;;;0.20;0.20;;;;;;;0.10;59.65;96590.75;5132920;27;20422;-53
2022/01/13 03:38:48;;;;;;;0.20;0.20;;;;;;;-0.05;71.18;96588.06;5132938;27;20434;-53
2022/01/13 03:41:19;;;;;;;1.13;1.13;;;;;;;-1.04;60.58;96588.81;5133055;27;20519;-53
2022/01/13 03:43:51;;;;;;;0.30;0.30;;;;;;;-1.11;61.99;96580.84;5133077;27;20850;-53
2022/01/13 03:46:19;;;;;;;0.20;0.20;;;;;;;-0.91;62.32;96600.31;5132947;27;20446;-53
2022/01/13 03:48:48;;;;;;;0.20;0.20;;;;;;;-0.58;62.47;96574.97;5132402;27;20991;-54
2022/01/13 03:51:17;;;;;;;0.20;0.20;;;;;;;-0.11;59.52;96586.16;5132576;28;20423;-53
2022/01/13 03:54:55;;;;;;;0.43;0.43;;;;;;;-0.84;56.22;96597.88;5132878;28;20438;-53
2022/01/13 03:58:00;;;;;;;0.20;0.20;;;;;;;-1.04;59.96;96607.03;5131572;27;21014;-53
2022/01/13 04:01:28;;;;;;;0.20;0.20;;;;;;;-0.57;59.66;96602.66;5132444;28;20526;-53
2022/01/13 04:03:57;;;;;;;0.20;0.20;;;;;;;-0.58;59.85;96603.63;5015283;28;20440;-53
2022/01/13 04:06:41;;;;;;;0.20;0.20;;;;;;;-0.07;66.08;96604.84;5049072;28;20446;-53
2022/01/13 04:09:11;;;;;;;0.20;0.20;;;;;;;-0.28;59.95;96589.81;5079695;28;20475;-53
2022/01/13 04:11:40;;;;;;;0.80;0.80;;;;;;;-0.28;58.37;96605.44;5091747;28;20468;-53
2022/01/13 04:14:10;;;;;;;0.20;0.20;;;;;;;-0.13;58.45;96598.53;5092000;28;20838;-53
2022/01/13 04:16:38;;;;;;;0.30;0.27;;;;;;;-0.87;57.67;96598.19;5091587;28;20432;-53
2022/01/13 04:19:08;;;;;;;0.20;0.10;;;;;;;-0.03;59.83;96604.31;5091965;28;20429;-53
2022/01/13 04:21:39;;;;;;;0.37;0.37;;;;;;;-0.39;58.09;96578.97;5091597;28;20480;-53
2022/01/13 04:24:12;;;;;;;0.67;0.67;;;;;;;-1.78;59.00;96539.66;5091968;28;20485;-53
2022/01/13 04:26:44;;;;;;;0.33;0.30;;;;;;;-1.10;62.52;96597.28;5093859;28;20481;-53
2022/01/13 04:29:27;;;;;;;1.03;1.03;;;;;;;-0.83;59.60;96617.69;5095817;28;20489;-53
2022/01/13 04:31:56;;;;;;;0.20;0.20;;;;;;;-0.68;60.04;96608.22;5095366;28;20989;-53
2022/01/13 04:34:25;;;;;;;0.20;0.20;;;;;;;-0.58;58.30;96624.44;5095466;28;20423;-53
2022/01/13 04:36:54;;;;;;;0.20;0.20;;;;;;;-0.56;55.04;96632.94;5095337;28;20998;-53
2022/01/13 04:39:23;;;;;;;0.30;0.20;;;;;;;-1.46;57.09;96628.84;5095312;28;20436;-54
2022/01/13 04:41:53;;;;;;;0.20;0.20;;;;;;;-1.55;59.94;96648.03;5095256;28;20472;-54
2022/01/13 04:44:25;;;;;;;0.20;0.20;;;;;;;-1.86;59.69;96623.63;5095486;28;20513;-54
2022/01/13 04:46:55;;;;;;;0.20;0.20;;;;;;;-1.31;56.96;96644.59;5095075;28;20464;-54
2022/01/13 04:49:23;;;;;;;0.20;0.17;;;;;;;-1.58;58.20;96658.75;5095163;28;20519;-54
2022/01/13 04:51:52;;;;;;;0.20;0.20;;;;;;;-1.47;59.33;96637.59;5094584;28;20459;-54
2022/01/13 04:54:20;;;;;;;0.30;0.30;;;;;;;-1.71;58.65;96640.22;5095393;28;20489;-54
2022/01/13 04:57:05;;;;;;;0.60;0.60;;;;;;;-1.56;63.01;96653.38;5095013;28;20869;-54
2022/01/13 04:59:35;;;;;;;0.30;0.20;;;;;;;-1.50;62.77;96661.34;5095133;28;20504;-54
2022/01/13 05:02:04;;;;;;;0.30;0.27;;;;;;;-1.39;63.29;96655.00;5119132;27;20539;-54
2022/01/13 05:04:33;;;;;;;2.70;2.40;;;;;;;-1.63;60.93;96673.19;5135652;27;20983;-54
2022/01/13 05:07:01;;;;;;;0.30;0.30;;;;;;;-1.75;60.92;96671.88;5135232;27;20431;-54
2022/01/13 05:09:30;;;;;;;3.03;2.83;;;;;;;-1.87;62.38;96671.34;5135448;27;20434;-54
2022/01/13 05:11:59;;;;;;;1.37;1.37;;;;;;;-2.41;62.58;96635.50;5135418;27;20426;-54
2022/01/13 05:14:28;;;;;;;0.20;0.20;;;;;;;-2.07;62.22;96685.59;5135593;27;20890;-54
2022/01/13 05:17:04;;;;;;;0.20;0.20;;;;;;;-2.17;63.51;96669.31;5135089;27;20431;-52
2022/01/13 05:19:37;;;;;;;0.30;0.20;;;;;;;-1.86;61.31;96660.00;5135391;27;20483;-52
2022/01/13 05:24:50;;;;;;;0.30;0.30;;;;;;;-2.71;64.56;96657.59;5135275;27;20427;-53
2022/01/13 05:27:20;;;;;;;0.20;0.20;;;;;;;-2.66;63.80;96686.50;5135140;27;20465;-53
2022/01/13 05:29:49;;;;;;;0.30;0.20;;;;;;;-3.10;64.79;96664.16;5135252;27;20411;-53
2022/01/13 05:32:19;;;;;;;0.20;0.20;;;;;;;-2.71;65.17;96686.13;5135232;27;20431;-53
2022/01/13 05:34:48;;;;;;;0.43;0.43;;;;;;;-3.72;64.85;96494.97;5135101;27;20458;-53
2022/01/13 05:37:16;;;;;;;0.53;0.53;;;;;;;-2.75;66.22;96680.44;5134793;27;20509;-53
2022/01/13 05:39:45;;;;;;;0.20;0.20;;;;;;;-2.72;68.16;96680.13;5134545;27;20430;-53
2022/01/13 05:42:14;;;;;;;0.40;0.40;;;;;;;-2.20;64.91;96687.84;5135164;27;20478;-53
2022/01/13 05:44:42;;;;;;;0.30;0.20;;;;;;;-2.13;62.04;96658.50;5135274;27;20422;-53
2022/01/13 05:47:12;;;;;;;0.33;0.27;;;;;;;-1.97;62.92;96687.09;5134578;27;20491;-54
2022/01/13 05:49:43;;;;;;;0.20;0.20;;;;;;;-1.26;61.56;96676.13;5134509;27;20450;-53
2022/01/13 05:52:14;;;;;;;0.20;0.20;;;;;;;-1.11;64.53;96678.91;5134599;27;20431;-53
2022/01/13 05:54:42;;;;;;;0.20;0.20;;;;;;;-2.23;60.74;96628.41;5134733;27;20479;-53
2022/01/13 05:57:11;;;;;;;0.30;0.30;;;;;;;-1.75;64.53;96628.53;5134930;27;20434;-53
2022/01/13 05:59:39;;;;;;;0.30;0.20;;;;;;;-1.21;60.52;96679.06;5134587;27;20419;-53
2022/01/13 06:02:08;;;;;;;0.30;0.20;;;;;;;-1.62;60.86;96699.00;5134129;27;20482;-54
2022/01/13 06:04:37;;;;;;;0.30;0.20;;;;;;;-1.80;60.55;96700.94;5134448;27;20415;-54
2022/01/13 06:07:07;;;;;;;0.50;0.50;;;;;;;-2.51;62.55;96665.97;5134340;27;20414;-54
2022/01/13 06:09:36;;;;;;;0.20;0.20;;;;;;;-2.12;63.81;96699.06;5134221;27;21006;-54
2022/01/13 06:12:05;;;;;;;0.20;0.20;;;;;;;-1.85;63.34;96702.41;5134488;27;20422;-54
2022/01/13 06:14:33;;;;;;;0.30;0.20;;;;;;;-2.11;62.81;96685.09;5134225;27;20481;-54
2022/01/13 06:17:02;;;;;;;1.57;1.50;;;;;;;-2.01;61.77;96700.56;5133891;27;20492;-54
2022/01/13 06:19:30;;;;;;;0.40;0.30;;;;;;;-1.78;58.96;96712.00;5134212;27;20426;-54
2022/01/13 06:21:59;;;;;;;0.30;0.30;;;;;;;-2.79;70.49;96645.41;5134378;27;20515;-54
2022/01/13 06:24:28;;;;;;;1.60;1.47;;;;;;;-2.44;73.54;96724.88;5134124;27;20499;-54
2022/01/13 06:26:57;;;;;;;0.20;0.20;;;;;;;-2.73;74.49;96673.31;5134366;27;20458;-53
2022/01/13 06:29:25;;;;;;;0.30;0.30;;;;;;;-2.44;77.64;96740.47;5134035;27;20898;-52
2022/01/13 06:31:54;;;;;;;1.40;1.30;;;;;;;-2.91;81.29;96734.78;5133811;27;20475;-53
2022/01/13 06:34:23;;;;;;;0.43;0.43;;;;;;;-2.74;82.63;96712.38;5133924;27;20423;-54
2022/01/13 06:36:51;;;;;;;0.33;0.30;;;;;;;-2.09;76.88;96708.31;5133607;27;20427;-53
2022/01/13 06:39:19;;;;;;;2.70;0.70;;;;;;;-0.87;70.15;96756.97;5134145;27;20526;-53
2022/01/13 06:41:49;;;;;;;0.20;0.20;;;;;;;-0.41;65.17;96758.06;5133565;27;21050;-54
2022/01/13 06:44:18;;;;;;;0.20;0.20;;;;;;;-0.21;63.33;96730.66;5134074;27;20472;-54
2022/01/13 06:46:46;;;;;;;0.73;0.73;;;;;;;0.70;59.09;96747.31;5133628;27;20431;-54
2022/01/13 06:49:15;;;;;;;0.30;0.20;;;;;;;0.76;56.92;96730.94;5133246;27;20427;-53
2022/01/13 06:51:43;;;;;;;1.17;1.17;;;;;;;1.48;56.02;96741.81;5133577;27;20430;-54
2022/01/13 06:54:12;;;;;;;0.30;0.30;;;;;;;1.99;52.61;96748.78;5133521;27;20426;-54
2022/01/13 06:56:40;;;;;;;0.23;0.20;;;;;;;2.20;51.46;96719.28;5133117;27;20854;-53
2022/01/13 06:59:12;;;;;;;0.33;0.33;;;;;;;2.45;49.72;96731.84;5133287;27;20442;-53
2022/01/13 07:01:41;;;;;;;0.33;0.33;;;;;;;2.80;48.97;96752.97;5133203;27;20513;-54
2022/01/13 07:04:12;;;;;;;0.30;0.20;;;;;;;2.25;50.04;96720.34;5133282;27;20431;-54
2022/01/13 07:06:42;;;;;;;0.30;0.20;;;;;;;3.33;45.34;96746.44;5132944;27;20995;-53
2022/01/13 07:09:13;;;;;;;0.50;0.50;;;;;;;3.22;46.41;96721.53;5133181;27;20475;-53
2022/01/13 07:11:42;;;;;;;0.30;0.30;;;;;;;3.96;43.40;96735.78;5133261;27;20418;-53
2022/01/13 07:14:12;;;;;;;0.30;0.20;;;;;;;3.93;43.65;96720.44;5133187;27;20473;-53
2022/01/13 07:16:42;;;;;;;0.30;0.30;;;;;;;4.16;42.07;96735.88;5133351;27;20458;-51
2022/01/13 07:19:12;;;;;;;0.30;0.20;;;;;;;3.64;41.70;96749.50;5133364;27;20426;-51
2022/01/13 07:21:41;;;;;;;0.47;0.47;;;;;;;4.91;39.72;96739.19;5133138;27;20497;-51
2022/01/13 07:24:10;;;;;;;0.40;0.40;;;;;;;5.47;38.97;96736.22;5133271;27;20431;-51
2022/01/13 07:26:38;;;;;;;0.30;0.20;;;;;;;4.38;39.17;96740.03;5133176;27;20462;-51
2022/01/13 07:29:07;;;;;;;0.30;0.20;;;;;;;4.71;38.54;96742.75;5132845;27;20480;-51
2022/01/13 07:31:38;;;;;;;0.30;0.20;;;;;;;5.26;38.37;96745.13;5132989;27;20434;-50
2022/01/13 07:34:07;;;;;;;0.33;0.27;;;;;;;6.00;38.21;96742.25;5132875;27;20426;-51
2022/01/13 07:36:38;;;;;;;0.30;0.30;;;;;;;6.61;36.63;96743.50;5133197;27;20751;-51
2022/01/13 07:39:07;;;;;;;1.17;1.07;;;;;;;6.30;36.15;96715.25;5132884;27;20839;-51
2022/01/13 07:41:38;;;;;;;0.60;0.60;;;;;;;5.61;36.52;96756.25;5133096;27;20556;-51
2022/01/13 07:44:07;;;;;;;1.47;1.20;;;;;;;5.84;37.44;96761.91;5133014;27;20846;-51
2022/01/13 07:46:37;;;;;;;0.40;0.40;;;;;;;6.79;34.96;96758.63;5132712;27;20439;-50
2022/01/13 07:49:05;;;;;;;0.50;0.50;;;;;;;7.84;33.76;96750.00;5132780;27;20492;-50
2022/01/13 07:51:34;;;;;;;0.50;0.30;;;;;;;7.66;34.91;96743.63;5132609;28;20435;-50
2022/01/13 07:54:02;;;;;;;0.40;0.20;;;;;;;8.74;33.35;96743.97;5132721;28;20422;-50
2022/01/13 07:56:31;;;;;;;2.77;2.57;;;;;;;7.73;36.46;96753.31;5132965;27;20497;-50
2022/01/13 07:58:59;;;;;;;0.70;0.70;;;;;;;8.24;36.62;96751.22;5132635;28;20891;-50
2022/01/13 08:01:28;;;;;;;0.97;0.97;;;;;;;8.61;36.22;96755.50;5134729;27;20505;-50
2022/01/13 08:03:58;;;;;;;0.83;0.83;;;;;;;8.39;34.73;96738.50;5136821;27;20941;-50
2022/01/13 08:06:27;;;;;;;0.47;0.47;;;;;;;7.44;35.92;96739.75;5137097;27;20431;-50
2022/01/13 08:08:55;;;;;;;0.53;0.53;;;;;;;7.52;34.54;96741.31;5136652;27;20999;-51
2022/01/13 08:11:23;;;;;;;0.50;0.50;;;;;;;7.78;34.05;96735.81;5136695;27;20418;-51
2022/01/13 08:13:52;;;;;;;1.60;1.00;;;;;;;7.83;33.45;96741.25;5136931;27;20485;-52
2022/01/13 08:16:20;;;;;;;1.17;1.17;;;;;;;8.68;32.29;96734.25;5136633;27;20415;-52
2022/01/13 08:21:36;;;;;;;0.60;0.60;;;;;;;9.55;32.01;96731.81;5136400;27;20495;-53
2022/01/13 08:24:04;;;;;;;1.47;0.90;;;;;;;9.67;31.30;96731.00;5136403;27;20487;-54
2022/01/13 08:26:33;;;;;;;1.20;1.10;;;;;;;9.41;31.65;96732.25;5136629;27;20431;-55
2022/01/13 08:29:01;;;;;;;2.10;0.67;;;;;;;8.99;31.97;96727.97;5136640;27;20418;-55
2022/01/13 08:31:30;;;;;;;1.13;1.13;;;;;;;10.02;31.04;96729.19;5136277;27;20431;-55
2022/01/13 08:33:58;;;;;;;1.27;1.27;;;;;;;9.27;31.55;96728.19;5136251;27;20426;-55
2022/01/13 08:36:27;;;;;;;1.03;1.03;;;;;;;9.28;31.92;96725.31;5136541;27;20429;-55
2022/01/13 08:38:57;;;;;;;1.23;1.13;;;;;;;9.20;30.99;96714.25;5136079;27;20477;-56
2022/01/13 08:41:25;;;;;;;2.17;1.33;;;;;;;10.50;30.33;96694.50;5136461;27;20431;-56
2022/01/13 08:43:55;;;;;;;1.23;1.13;;;;;;;11.21;29.55;96696.59;5136213;27;20466;-56
2022/01/13 08:46:24;;;;;;;0.40;0.30;;;;;;;11.07;28.51;96698.75;5135969;27;20426;-56
2022/01/13 08:48:53;;;;;;;0.53;0.50;;;;;;;11.01;29.16;96709.50;5136271;27;20426;-56
2022/01/13 08:51:22;;;;;;;8.10;1.80;;;;;;;9.76;29.49;96648.38;5135744;27;20427;-56
2022/01/13 08:53:51;;;;;;;2.10;0.97;;;;;;;10.87;28.62;96727.56;5135033;27;20445;-56
2022/01/13 08:56:21;;;;;;;1.13;0.90;;;;;;;9.46;29.35;96672.28;5135849;27;20473;-56
2022/01/13 08:58:49;;;;;;;1.17;1.07;;;;;;;10.38;28.55;96689.19;5136077;27;20425;-55
2022/01/13 09:01:18;;;;;;;1.10;0.60;;;;;;;9.80;27.91;96525.06;5135378;27;20474;-55
2022/01/13 09:03:47;;;;;;;0.87;0.50;;;;;;;11.35;27.72;96722.63;5135565;27;20622;-55
2022/01/13 09:06:15;;;;;;;1.30;0.47;;;;;;;11.20;28.52;96671.94;5135618;27;20482;-55
2022/01/13 09:08:43;;;;;;;4.33;0.40;;;;;;;11.81;27.03;96692.31;5135515;27;20498;-55
2022/01/13 09:11:12;;;;;;;0.60;0.60;;;;;;;11.65;27.27;96713.53;5135301;27;20465;-54
2022/01/13 09:13:42;;;;;;;1.27;1.27;;;;;;;11.80;27.26;96705.81;5135548;27;20472;-54
2022/01/13 09:16:15;;;;;;;0.70;0.70;;;;;;;11.46;26.73;96703.13;5135462;27;20923;-54
2022/01/13 09:19:07;;;;;;;0.83;0.83;;;;;;;11.27;27.14;96703.59;5135708;27;20425;-54
2022/01/13 09:21:38;;;;;;;0.40;0.30;;;;;;;11.01;27.24;96701.53;5135342;27;20422;-54
2022/01/13 09:24:08;;;;;;;0.43;0.30;;;;;;;10.94;27.16;96663.75;5135207;27;20470;-54
2022/01/13 09:26:37;;;;;;;2.87;1.80;;;;;;;11.11;27.05;96709.69;5135375;27;20418;-54
2022/01/13 09:29:08;;;;;;;0.57;0.57;;;;;;;11.47;26.71;96702.09;5135088;27;20495;-54
2022/01/13 09:31:38;;;;;;;1.63;1.60;;;;;;;10.93;27.51;96705.38;5134829;27;20470;-53
2022/01/13 09:34:08;;;;;;;1.83;1.37;;;;;;;9.24;29.18;96712.75;5134770;27;20450;-53
2022/01/13 09:36:37;;;;;;;1.10;1.00;;;;;;;10.84;29.51;96693.53;5135415;27;20434;-53
2022/01/13 09:39:07;;;;;;;0.97;0.67;;;;;;;11.15;27.77;96692.25;5134901;27;20434;-54
2022/01/13 09:41:37;;;;;;;0.50;0.40;;;;;;;11.47;27.39;96680.88;5133899;27;20495;-53
2022/01/13 09:44:07;;;;;;;0.73;0.60;;;;;;;11.56;26.34;96603.47;5133708;27;20478;-53
2022/01/13 09:46:36;;;;;;;1.50;1.43;;;;;;;11.60;26.55;96668.31;5133790;27;20426;-53
2022/01/13 09:49:07;;;;;;;1.43;0.50;;;;;;;11.12;27.21;96635.16;5133916;27;20473;-54
2022/01/13 09:51:37;;;;;;;1.70;1.60;;;;;;;12.52;26.37;96667.47;5133838;27;20426;-57
2022/01/13 09:54:06;;;;;;;1.17;1.17;;;;;;;12.20;25.85;96616.03;5133993;27;20952;-53
2022/01/13 09:56:35;;;;;;;0.67;0.67;;;;;;;12.87;27.26;96661.75;5134431;27;20434;-53
2022/01/13 09:59:05;;;;;;;1.63;0.53;;;;;;;14.49;23.60;96655.78;5134622;27;20419;-54
2022/01/13 10:01:35;;;;;;;0.70;0.70;;;;;;;13.60;23.85;96588.38;5134419;27;20469;-54
2022/01/13 10:04:04;;;;;;;0.60;0.40;;;;;;;14.12;25.49;96625.69;5134363;27;20997;-53
2022/01/13 10:06:41;;;;;;;0.83;0.60;;;;;;;14.06;24.67;96619.56;5134536;27;20472;-53
2022/01/13 10:09:10;;;;;;;0.97;0.97;;;;;;;12.89;24.88;96629.56;5134065;27;20430;-54
2022/01/13 10:11:41;;;;;;;3.13;1.23;;;;;;;13.48;24.63;96633.84;5134520;27;20957;-53
2022/01/13 10:14:16;;;;;;;1.80;0.70;;;;;;;13.27;25.39;96638.22;5134146;27;20465;-53
2022/01/13 10:16:48;;;;;;;0.70;0.70;;;;;;;11.75;27.29;96642.00;5134528;27;20418;-53
2022/01/13 10:19:28;;;;;;;2.80;0.80;;;;;;;12.44;25.73;96628.03;5134330;27;20876;-53
2022/01/13 10:21:59;;;;;;;0.40;0.30;;;;;;;13.78;24.78;96626.06;5133977;27;20462;-53
2022/01/13 10:24:29;;;;;;;1.00;1.00;;;;;;;14.61;24.18;96627.00;5133194;27;21065;-53
2022/01/13 10:27:04;;;;;;;1.17;1.00;;;;;;;14.78;22.73;96611.56;5133877;27;20435;-53
2022/01/13 10:29:44;;;;;;;0.57;0.57;;;;;;;15.30;22.70;96621.25;5133822;27;20841;-52
2022/01/13 10:32:16;;;;;;;4.00;1.23;;;;;;;15.60;23.45;96611.38;5133563;27;20423;-52
2022/01/13 10:34:47;;;;;;;6.90;0.93;;;;;;;15.60;21.35;96565.16;5133648;27;20415;-53
2022/01/13 10:37:17;;;;;;;0.60;0.60;;;;;;;15.89;22.28;96592.88;5133458;27;20430;-53
2022/01/13 10:39:58;;;;;;;0.90;0.57;;;;;;;15.35;21.79;96587.34;5133800;27;20527;-52
2022/01/13 10:45:41;;;;;;;1.93;0.67;;;;;;;16.02;21.76;96573.59;5122659;27;20510;-53
2022/01/13 10:48:14;;;;;;;6.40;2.97;;;;;;;15.74;22.72;96579.53;5133631;27;20437;-53
2022/01/13 10:50:45;;;;;;;0.50;0.47;;;;;;;14.81;22.25;96479.44;5133864;27;20461;-53
2022/01/13 10:53:17;;;;;;;1.43;1.00;;;;;;;15.76;22.86;96569.41;5133564;27;20487;-53
2022/01/13 10:55:48;;;;;;;2.03;1.83;;;;;;;14.45;22.46;96570.13;5133477;27;20427;-53
2022/01/13 10:58:23;;;;;;;2.60;2.50;;;;;;;14.61;23.20;96562.97;5133170;27;20430;-53
2022/01/13 11:00:53;;;;;;;2.57;1.40;;;;;;;14.90;21.97;96556.06;5133183;27;20483;-53
2022/01/13 11:03:25;;;;;;;0.73;0.73;;;;;;;15.21;22.31;96557.69;5133729;27;20549;-53
2022/01/13 11:05:55;;;;;;;0.60;0.60;;;;;;;14.69;22.99;96561.66;5133515;27;20995;-54
2022/01/13 11:08:27;;;;;;;1.73;1.63;;;;;;;13.53;23.56;96555.84;5133345;27;20483;-54
2022/01/13 11:10:58;;;;;;;1.63;1.53;;;;;;;14.61;24.28;96549.63;5133668;27;20435;-53
2022/01/13 11:13:33;;;;;;;1.90;1.80;;;;;;;14.79;22.87;96538.44;5133031;27;20430;-54
2022/01/13 11:16:02;;;;;;;12.43;1.07;;;;;;;16.15;21.94;96521.38;5133397;27;20506;-54
2022/01/13 11:18:33;;;;;;;1.53;1.43;;;;;;;15.33;22.19;96514.66;5132893;27;20483;-54
2022/01/13 11:21:03;;;;;;;1.73;1.10;;;;;;;15.45;22.45;96512.53;5132534;27;20438;-53
2022/01/13 11:23:33;;;;;;;1.40;0.87;;;;;;;15.88;21.44;96508.41;5132576;27;20477;-54
2022/01/13 11:26:02;;;;;;;1.63;1.53;;;;;;;14.55;23.29;96506.13;5132934;27;20442;-54
2022/01/13 11:28:31;;;;;;;0.90;0.77;;;;;;;14.58;23.02;96494.94;5133137;27;20491;-54
2022/01/13 11:31:00;;;;;;;0.70;0.70;;;;;;;14.44;22.94;96439.69;5133060;27;20415;-54
2022/01/13 11:33:29;;;;;;;1.00;1.00;;;;;;;16.03;22.06;96478.13;5132838;27;20438;-54
2022/01/13 11:35:59;;;;;;;1.33;0.80;;;;;;;15.28;21.55;96466.56;5133095;27;20779;-54
2022/01/13 11:38:30;;;;;;;1.40;1.23;;;;;;;14.04;23.10;96483.03;5132732;27;20422;-53
2022/01/13 11:41:04;;;;;;;2.60;1.83;;;;;;;13.11;24.23;96473.28;5132939;27;20924;-54
2022/01/13 11:43:37;;;;;;;1.13;1.07;;;;;;;13.93;23.11;96471.56;5132554;27;20423;-54
2022/01/13 11:46:18;;;;;;;1.67;1.43;;;;;;;13.41;22.34;96470.78;5132773;27;20474;-53
2022/01/13 11:49:02;;;;;;;0.50;0.50;;;;;;;14.26;22.86;96464.97;5132651;28;20425;-53
2022/01/13 11:51:44;;;;;;;1.43;0.93;;;;;;;15.45;21.82;96437.72;5132507;28;20441;-53
2022/01/13 11:54:32;;;;;;;1.50;1.13;;;;;;;14.38;22.68;96443.41;5132242;28;20483;-53
2022/01/13 11:57:22;;;;;;;1.93;1.27;;;;;;;13.98;23.09;96452.13;5131843;28;20981;-53
2022/01/13 12:00:22;;;;;;;0.70;0.67;;;;;;;15.45;22.22;96435.06;5132448;27;20453;-53
2022/01/13 12:02:51;;;;;;;0.80;0.80;;;;;;;16.75;21.94;96435.38;5127433;28;20888;-53
2022/01/13 12:05:21;;;;;;;0.77;0.70;;;;;;;17.04;20.28;96441.56;5132062;28;20481;-53
2022/01/13 12:07:53;;;;;;;0.80;0.80;;;;;;;16.67;19.57;96437.88;5132512;28;20842;-53